sensor_id;sensor_type;location;lat;lon;timestamp;pressure;altitude;pressure_sealevel;temperature;humidity
71938;BME280;59810;48.800;9.086;2023-05-01T00:00:10;97599.63;;;8.99;84.06
71938;BME280;59810;48.800;9.086;2023-05-01T00:02:36;97594.81;;;9.01;84.01
71938;BME280;59810;48.800;9.086;2023-05-01T00:05:02;97593.19;;;9.00;83.35
71938;BME280;59810;48.800;9.086;2023-05-01T00:07:28;97589.91;;;8.98;84.61
71938;BME280;59810;48.800;9.086;2023-05-01T00:09:58;97586.66;;;8.96;85.37
71938;BME280;59810;48.800;9.086;2023-05-01T00:12:26;97594.16;;;8.94;85.79
71938;BME280;59810;48.800;9.086;2023-05-01T00:14:52;97577.66;;;8.91;85.80
71938;BME280;59810;48.800;9.086;2023-05-01T00:17:20;97579.28;;;8.92;85.79
71938;BME280;59810;48.800;9.086;2023-05-01T00:19:51;97573.00;;;8.86;85.98
71938;BME280;59810;48.800;9.086;2023-05-01T00:22:18;97569.97;;;8.83;85.76
71938;BME280;59810;48.800;9.086;2023-05-01T00:24:44;97560.59;;;8.85;85.71
71938;BME280;59810;48.800;9.086;2023-05-01T00:27:12;97571.28;;;8.80;86.25
71938;BME280;59810;48.800;9.086;2023-05-01T00:29:39;97562.63;;;8.78;86.04
71938;BME280;59810;48.800;9.086;2023-05-01T00:32:06;97570.91;;;8.77;85.61
71938;BME280;59810;48.800;9.086;2023-05-01T00:34:31;97565.41;;;8.83;85.33
71938;BME280;59810;48.800;9.086;2023-05-01T00:36:57;97559.19;;;8.83;85.61
71938;BME280;59810;48.800;9.086;2023-05-01T00:39:25;97549.00;;;8.85;85.69
71938;BME280;59810;48.800;9.086;2023-05-01T00:41:50;97549.72;;;8.80;85.90
71938;BME280;59810;48.800;9.086;2023-05-01T00:44:16;97541.53;;;8.75;86.45
71938;BME280;59810;48.800;9.086;2023-05-01T00:46:41;97552.78;;;8.72;86.72
71938;BME280;59810;48.800;9.086;2023-05-01T00:49:08;97554.09;;;8.69;87.70
71938;BME280;59810;48.800;9.086;2023-05-01T00:51:34;97545.44;;;8.67;87.42
71938;BME280;59810;48.800;9.086;2023-05-01T00:54:00;97551.31;;;8.64;87.26
71938;BME280;59810;48.800;9.086;2023-05-01T00:56:25;97546.16;;;8.63;87.89
71938;BME280;59810;48.800;9.086;2023-05-01T00:58:52;97539.88;;;8.57;87.61
71938;BME280;59810;48.800;9.086;2023-05-01T01:01:21;97541.34;;;8.65;86.74
71938;BME280;59810;48.800;9.086;2023-05-01T01:03:47;97539.31;;;8.72;85.72
71938;BME280;59810;48.800;9.086;2023-05-01T01:08:45;97527.75;;;8.71;86.39
71938;BME280;59810;48.800;9.086;2023-05-01T01:11:19;97525.19;;;8.65;87.08
71938;BME280;59810;48.800;9.086;2023-05-01T01:13:59;97526.16;;;8.59;87.32
71938;BME280;59810;48.800;9.086;2023-05-01T01:21:45;97516.38;;;8.53;87.93
71938;BME280;59810;48.800;9.086;2023-05-01T01:30:51;97509.69;;;8.55;86.96
71938;BME280;59810;48.800;9.086;2023-05-01T01:33:50;97507.47;;;8.52;87.53
71938;BME280;59810;48.800;9.086;2023-05-01T01:36:40;97504.53;;;8.54;87.12
71938;BME280;59810;48.800;9.086;2023-05-01T01:39:23;97513.28;;;8.61;87.21
71938;BME280;59810;48.800;9.086;2023-05-01T01:41:52;97508.00;;;8.66;87.36
71938;BME280;59810;48.800;9.086;2023-05-01T01:44:27;97506.47;;;8.70;86.19
71938;BME280;59810;48.800;9.086;2023-05-01T01:46:55;97505.41;;;8.71;85.32
71938;BME280;59810;48.800;9.086;2023-05-01T01:49:26;97504.66;;;8.76;85.61
71938;BME280;59810;48.800;9.086;2023-05-01T01:51:52;97497.31;;;8.71;86.31
71938;BME280;59810;48.800;9.086;2023-05-01T01:54:24;97498.88;;;8.67;87.24
71938;BME280;59810;48.800;9.086;2023-05-01T01:56:56;97498.28;;;8.65;87.59
71938;BME280;59810;48.800;9.086;2023-05-01T01:59:24;97499.94;;;8.66;88.46
71938;BME280;59810;48.800;9.086;2023-05-01T02:01:52;97495.50;;;8.60;88.61
71938;BME280;59810;48.800;9.086;2023-05-01T02:04:19;97489.22;;;8.54;88.54
71938;BME280;59810;48.800;9.086;2023-05-01T02:06:47;97486.28;;;8.56;88.39
71938;BME280;59810;48.800;9.086;2023-05-01T02:09:15;97489.78;;;8.56;89.52
71938;BME280;59810;48.800;9.086;2023-05-01T02:11:42;97478.13;;;8.51;89.20
71938;BME280;59810;48.800;9.086;2023-05-01T02:14:08;97477.31;;;8.50;89.56
71938;BME280;59810;48.800;9.086;2023-05-01T02:16:38;97480.25;;;8.49;89.88
71938;BME280;59810;48.800;9.086;2023-05-01T02:19:06;97473.22;;;8.48;89.61
71938;BME280;59810;48.800;9.086;2023-05-01T02:21:33;97477.06;;;8.52;89.68
71938;BME280;59810;48.800;9.086;2023-05-01T02:24:00;97473.22;;;8.48;89.84
71938;BME280;59810;48.800;9.086;2023-05-01T02:26:27;97471.69;;;8.52;89.97
71938;BME280;59810;48.800;9.086;2023-05-01T02:28:53;97477.06;;;8.52;89.07
71938;BME280;59810;48.800;9.086;2023-05-01T02:31:19;97465.16;;;8.48;89.96
71938;BME280;59810;48.800;9.086;2023-05-01T02:33:45;97468.41;;;8.50;89.26
71938;BME280;59810;48.800;9.086;2023-05-01T02:36:11;97465.72;;;8.50;89.37
71938;BME280;59810;48.800;9.086;2023-05-01T02:38:40;97462.31;;;8.54;89.20
71938;BME280;59810;48.800;9.086;2023-05-01T02:41:07;97460.53;;;8.60;88.51
71938;BME280;59810;48.800;9.086;2023-05-01T02:43:35;97462.72;;;8.63;88.25
71938;BME280;59810;48.800;9.086;2023-05-01T02:46:02;97461.19;;;8.67;88.74
71938;BME280;59810;48.800;9.086;2023-05-01T02:48:29;97451.16;;;8.62;88.44
71938;BME280;59810;48.800;9.086;2023-05-01T02:50:55;97451.63;;;8.59;89.27
71938;BME280;59810;48.800;9.086;2023-05-01T02:53:22;97457.09;;;8.64;88.98
71938;BME280;59810;48.800;9.086;2023-05-01T02:55:48;97451.00;;;8.69;88.51
71938;BME280;59810;48.800;9.086;2023-05-01T02:58:17;97452.47;;;8.77;88.18
71938;BME280;59810;48.800;9.086;2023-05-01T03:00:47;97445.06;;;8.84;87.60
71938;BME280;59810;48.800;9.086;2023-05-01T03:03:13;97452.34;;;8.83;89.18
71938;BME280;59810;48.800;9.086;2023-05-01T03:05:40;97445.00;;;8.79;89.46
71938;BME280;59810;48.800;9.086;2023-05-01T03:08:08;97448.16;;;8.76;87.83
71938;BME280;59810;48.800;9.086;2023-05-01T03:10:35;97450.03;;;8.75;88.68
71938;BME280;59810;48.800;9.086;2023-05-01T03:13:00;97451.66;;;8.76;89.23
71938;BME280;59810;48.800;9.086;2023-05-01T03:15:26;97446.28;;;8.76;90.00
71938;BME280;59810;48.800;9.086;2023-05-01T03:17:51;97451.31;;;8.72;88.66
71938;BME280;59810;48.800;9.086;2023-05-01T03:20:16;97444.63;;;8.75;87.77
71938;BME280;59810;48.800;9.086;2023-05-01T03:22:42;97447.56;;;8.73;87.18
71938;BME280;59810;48.800;9.086;2023-05-01T03:25:08;97445.63;;;8.69;88.73
71938;BME280;59810;48.800;9.086;2023-05-01T03:27:34;97445.38;;;8.70;89.33
71938;BME280;59810;48.800;9.086;2023-05-01T03:29:59;97439.97;;;8.70;90.40
71938;BME280;59810;48.800;9.086;2023-05-01T03:32:28;97442.91;;;8.69;89.98
71938;BME280;59810;48.800;9.086;2023-05-01T03:34:54;97434.03;;;8.68;90.38
71938;BME280;59810;48.800;9.086;2023-05-01T03:37:19;97436.97;;;8.67;90.84
71938;BME280;59810;48.800;9.086;2023-05-01T03:39:45;97438.09;;;8.71;90.17
71938;BME280;59810;48.800;9.086;2023-05-01T03:42:10;97432.66;;;8.66;90.69
71938;BME280;59810;48.800;9.086;2023-05-01T03:44:36;97427.84;;;8.68;91.00
71938;BME280;59810;48.800;9.086;2023-05-01T03:47:03;97438.59;;;8.68;90.75
71938;BME280;59810;48.800;9.086;2023-05-01T03:49:29;97428.31;;;8.65;90.93
71938;BME280;59810;48.800;9.086;2023-05-01T03:51:54;97421.78;;;8.61;90.15
71938;BME280;59810;48.800;9.086;2023-05-01T03:54:20;97419.19;;;8.66;90.65
71938;BME280;59810;48.800;9.086;2023-05-01T03:56:46;97421.38;;;8.69;90.32
71938;BME280;59810;48.800;9.086;2023-05-01T03:59:13;97417.06;;;8.68;90.97
71938;BME280;59810;48.800;9.086;2023-05-01T04:01:39;97420.34;;;8.70;89.73
71938;BME280;59810;48.800;9.086;2023-05-01T04:04:04;97419.84;;;8.73;89.88
71938;BME280;59810;48.800;9.086;2023-05-01T04:06:30;97417.63;;;8.70;89.60
71938;BME280;59810;48.800;9.086;2023-05-01T04:08:55;97424.41;;;8.72;89.11
71938;BME280;59810;48.800;9.086;2023-05-01T04:11:20;97428.03;;;8.78;89.07
71938;BME280;59810;48.800;9.086;2023-05-01T04:13:46;97426.22;;;8.84;89.28
71938;BME280;59810;48.800;9.086;2023-05-01T04:16:11;97425.41;;;8.83;89.77
71938;BME280;59810;48.800;9.086;2023-05-01T04:18:37;97422.41;;;8.80;90.28
71938;BME280;59810;48.800;9.086;2023-05-01T04:21:02;97417.09;;;8.85;88.84
71938;BME280;59810;48.800;9.086;2023-05-01T04:23:30;97419.47;;;8.81;89.79
71938;BME280;59810;48.800;9.086;2023-05-01T04:25:55;97414.31;;;8.80;89.63
71938;BME280;59810;48.800;9.086;2023-05-01T04:28:21;97416.78;;;8.81;90.84
71938;BME280;59810;48.800;9.086;2023-05-01T04:30:46;97420.84;;;8.84;90.76
71938;BME280;59810;48.800;9.086;2023-05-01T04:33:14;97414.72;;;8.88;90.01
71938;BME280;59810;48.800;9.086;2023-05-01T04:35:40;97416.69;;;8.93;88.96
71938;BME280;59810;48.800;9.086;2023-05-01T04:38:06;97427.03;;;9.01;87.96
71938;BME280;59810;48.800;9.086;2023-05-01T04:40:32;97428.44;;;9.03;87.07
71938;BME280;59810;48.800;9.086;2023-05-01T04:42:57;97425.25;;;9.07;87.08
71938;BME280;59810;48.800;9.086;2023-05-01T04:45:22;97423.63;;;9.05;87.81
71938;BME280;59810;48.800;9.086;2023-05-01T04:47:48;97422.47;;;9.01;88.50
71938;BME280;59810;48.800;9.086;2023-05-01T04:50:13;97425.41;;;9.00;87.66
71938;BME280;59810;48.800;9.086;2023-05-01T04:52:41;97424.09;;;9.02;87.56
71938;BME280;59810;48.800;9.086;2023-05-01T04:55:09;97430.38;;;9.08;87.31
71938;BME280;59810;48.800;9.086;2023-05-01T04:57:34;97424.28;;;9.13;87.99
71938;BME280;59810;48.800;9.086;2023-05-01T05:00:00;97425.41;;;9.17;87.00
71938;BME280;59810;48.800;9.086;2023-05-01T05:02:25;97425.41;;;9.17;86.65
71938;BME280;59810;48.800;9.086;2023-05-01T05:04:51;97427.38;;;9.21;87.49
71938;BME280;59810;48.800;9.086;2023-05-01T05:07:20;97426.25;;;9.17;87.65
71938;BME280;59810;48.800;9.086;2023-05-01T05:09:45;97430.56;;;9.18;87.58
71938;BME280;59810;48.800;9.086;2023-05-01T05:12:12;97429.00;;;9.22;87.63
71938;BME280;59810;48.800;9.086;2023-05-01T05:14:41;97429.31;;;9.26;86.84
71938;BME280;59810;48.800;9.086;2023-05-01T05:17:09;97425.56;;;9.27;88.47
71938;BME280;59810;48.800;9.086;2023-05-01T05:19:34;97427.19;;;9.28;87.98
71938;BME280;59810;48.800;9.086;2023-05-01T05:22:03;97420.44;;;9.25;89.35
71938;BME280;59810;48.800;9.086;2023-05-01T05:24:29;97422.13;;;9.31;87.79
71938;BME280;59810;48.800;9.086;2023-05-01T05:26:54;97423.28;;;9.35;87.29
71938;BME280;59810;48.800;9.086;2023-05-01T05:29:22;97428.16;;;9.39;86.95
71938;BME280;59810;48.800;9.086;2023-05-01T05:31:48;97423.69;;;9.44;87.33
71938;BME280;59810;48.800;9.086;2023-05-01T05:34:13;97428.59;;;9.47;86.51
71938;BME280;59810;48.800;9.086;2023-05-01T05:36:39;97435.03;;;9.46;85.75
71938;BME280;59810;48.800;9.086;2023-05-01T05:39:04;97423.44;;;9.46;87.55
71938;BME280;59810;48.800;9.086;2023-05-01T05:41:29;97429.97;;;9.33;87.40
71938;BME280;59810;48.800;9.086;2023-05-01T05:43:55;97429.53;;;9.41;86.96
71938;BME280;59810;48.800;9.086;2023-05-01T05:46:20;97433.41;;;9.45;86.25
71938;BME280;59810;48.800;9.086;2023-05-01T05:48:48;97430.22;;;9.48;86.20
71938;BME280;59810;48.800;9.086;2023-05-01T05:51:13;97427.50;;;9.48;86.24
71938;BME280;59810;48.800;9.086;2023-05-01T05:53:39;97427.50;;;9.48;86.36
71938;BME280;59810;48.800;9.086;2023-05-01T05:56:04;97422.53;;;9.40;87.86
71938;BME280;59810;48.800;9.086;2023-05-01T05:58:30;97420.81;;;9.34;88.78
71938;BME280;59810;48.800;9.086;2023-05-01T06:00:55;97423.44;;;9.29;89.79
71938;BME280;59810;48.800;9.086;2023-05-01T06:03:21;97428.34;;;9.32;90.98
71938;BME280;59810;48.800;9.086;2023-05-01T06:05:47;97428.97;;;9.39;89.79
71938;BME280;59810;48.800;9.086;2023-05-01T06:08:12;97428.81;;;9.46;89.35
71938;BME280;59810;48.800;9.086;2023-05-01T06:10:42;97436.97;;;9.51;89.02
71938;BME280;59810;48.800;9.086;2023-05-01T06:13:08;97420.31;;;9.54;90.75
71938;BME280;59810;48.800;9.086;2023-05-01T06:15:37;97430.22;;;9.48;92.36
71938;BME280;59810;48.800;9.086;2023-05-01T06:18:03;97434.03;;;9.52;90.84
71938;BME280;59810;48.800;9.086;2023-05-01T06:20:29;97431.97;;;9.59;89.89
71938;BME280;59810;48.800;9.086;2023-05-01T06:22:54;97427.22;;;9.66;88.60
71938;BME280;59810;48.800;9.086;2023-05-01T06:25:20;97433.56;;;9.77;88.05
71938;BME280;59810;48.800;9.086;2023-05-01T06:27:47;97428.25;;;9.82;86.89
71938;BME280;59810;48.800;9.086;2023-05-01T06:30:12;97432.06;;;9.86;86.07
71938;BME280;59810;48.800;9.086;2023-05-01T06:32:37;97432.38;;;9.90;85.02
71938;BME280;59810;48.800;9.086;2023-05-01T06:35:03;97436.97;;;9.89;85.58
71938;BME280;59810;48.800;9.086;2023-05-01T06:37:31;97434.06;;;9.96;86.08
71938;BME280;59810;48.800;9.086;2023-05-01T06:39:56;97431.91;;;10.15;90.13
71938;BME280;59810;48.800;9.086;2023-05-01T06:42:21;97430.91;;;10.43;92.43
71938;BME280;59810;48.800;9.086;2023-05-01T06:44:47;97430.81;;;10.38;85.45
71938;BME280;59810;48.800;9.086;2023-05-01T06:47:12;97437.38;;;10.42;84.88
71938;BME280;59810;48.800;9.086;2023-05-01T06:49:37;97442.13;;;10.35;84.19
71938;BME280;59810;48.800;9.086;2023-05-01T06:52:03;97438.47;;;10.46;82.30
71938;BME280;59810;48.800;9.086;2023-05-01T06:54:28;97453.56;;;10.42;82.46
71938;BME280;59810;48.800;9.086;2023-05-01T06:56:54;97451.22;;;10.50;82.22
71938;BME280;59810;48.800;9.086;2023-05-01T06:59:19;97453.88;;;10.45;80.98
71938;BME280;59810;48.800;9.086;2023-05-01T07:01:45;97445.56;;;10.52;81.76
71938;BME280;59810;48.800;9.086;2023-05-01T07:04:10;97452.13;;;10.61;82.44
71938;BME280;59810;48.800;9.086;2023-05-01T07:06:35;97452.16;;;10.66;83.20
71938;BME280;59810;48.800;9.086;2023-05-01T07:09:02;97453.28;;;10.70;81.63
71938;BME280;59810;48.800;9.086;2023-05-01T07:11:27;97458.84;;;10.85;79.79
71938;BME280;59810;48.800;9.086;2023-05-01T07:13:53;97458.47;;;11.04;79.53
71938;BME280;59810;48.800;9.086;2023-05-01T07:16:21;97456.44;;;11.16;78.84
71938;BME280;59810;48.800;9.086;2023-05-01T07:18:46;97458.91;;;11.22;77.07
71938;BME280;59810;48.800;9.086;2023-05-01T07:21:11;97457.31;;;11.27;76.70
71938;BME280;59810;48.800;9.086;2023-05-01T07:23:37;97454.84;;;11.20;78.96
71938;BME280;59810;48.800;9.086;2023-05-01T07:26:03;97451.06;;;11.21;78.18
71938;BME280;59810;48.800;9.086;2023-05-01T07:28:30;97455.72;;;11.31;77.75
71938;BME280;59810;48.800;9.086;2023-05-01T07:30:55;97456.47;;;11.21;79.97
71938;BME280;59810;48.800;9.086;2023-05-01T07:33:20;97454.31;;;11.23;78.52
71938;BME280;59810;48.800;9.086;2023-05-01T07:35:48;97446.22;;;11.23;78.87
71938;BME280;59810;48.800;9.086;2023-05-01T07:38:15;97449.28;;;11.37;79.50
71938;BME280;59810;48.800;9.086;2023-05-01T07:40:41;97444.78;;;11.47;79.44
71938;BME280;59810;48.800;9.086;2023-05-01T07:43:07;97444.31;;;11.61;79.06
71938;BME280;59810;48.800;9.086;2023-05-01T07:45:35;97437.56;;;11.63;79.40
71938;BME280;59810;48.800;9.086;2023-05-01T07:48:01;97442.78;;;11.75;77.36
71938;BME280;59810;48.800;9.086;2023-05-01T07:50:26;97438.19;;;11.75;77.91
71938;BME280;59810;48.800;9.086;2023-05-01T07:52:54;97442.59;;;11.81;79.12
71938;BME280;59810;48.800;9.086;2023-05-01T07:55:21;97439.28;;;11.74;77.85
71938;BME280;59810;48.800;9.086;2023-05-01T07:57:47;97434.56;;;11.60;78.41
71938;BME280;59810;48.800;9.086;2023-05-01T08:00:15;97435.41;;;11.65;78.94
71938;BME280;59810;48.800;9.086;2023-05-01T08:02:41;97426.84;;;11.73;78.16
71938;BME280;59810;48.800;9.086;2023-05-01T08:05:07;97435.81;;;11.79;77.92
71938;BME280;59810;48.800;9.086;2023-05-01T08:07:32;97435.31;;;11.92;77.95
71938;BME280;59810;48.800;9.086;2023-05-01T08:09:58;97429.91;;;11.92;75.45
71938;BME280;59810;48.800;9.086;2023-05-01T08:12:24;97434.00;;;11.95;76.22
71938;BME280;59810;48.800;9.086;2023-05-01T08:14:52;97441.38;;;12.09;76.37
71938;BME280;59810;48.800;9.086;2023-05-01T08:17:18;97428.53;;;12.67;82.58
71938;BME280;59810;48.800;9.086;2023-05-01T08:19:44;97434.53;;;13.00;77.33
71938;BME280;59810;48.800;9.086;2023-05-01T08:22:12;97434.53;;;13.00;71.44
71938;BME280;59810;48.800;9.086;2023-05-01T08:24:38;97437.00;;;13.01;73.92
71938;BME280;59810;48.800;9.086;2023-05-01T08:27:06;97437.00;;;13.01;72.32
71938;BME280;59810;48.800;9.086;2023-05-01T08:29:32;97435.66;;;13.29;71.08
71938;BME280;59810;48.800;9.086;2023-05-01T08:31:58;97433.78;;;13.40;72.84
71938;BME280;59810;48.800;9.086;2023-05-01T08:34:28;97428.38;;;13.35;71.16
71938;BME280;59810;48.800;9.086;2023-05-01T08:36:53;97427.50;;;13.65;72.72
71938;BME280;59810;48.800;9.086;2023-05-01T08:39:19;97428.03;;;13.62;68.71
71938;BME280;59810;48.800;9.086;2023-05-01T08:41:47;97420.97;;;13.76;71.50
71938;BME280;59810;48.800;9.086;2023-05-01T08:44:16;97425.78;;;13.99;70.16
71938;BME280;59810;48.800;9.086;2023-05-01T08:46:54;97420.81;;;14.17;69.22
71938;BME280;59810;48.800;9.086;2023-05-01T08:49:22;97423.06;;;14.05;67.54
71938;BME280;59810;48.800;9.086;2023-05-01T08:51:50;97425.53;;;13.91;68.19
71938;BME280;59810;48.800;9.086;2023-05-01T08:54:19;97423.63;;;14.01;67.31
71938;BME280;59810;48.800;9.086;2023-05-01T08:56:46;97430.06;;;14.16;66.62
71938;BME280;59810;48.800;9.086;2023-05-01T08:59:14;97425.22;;;14.08;66.17
71938;BME280;59810;48.800;9.086;2023-05-01T09:01:41;97423.81;;;14.15;66.16
71938;BME280;59810;48.800;9.086;2023-05-01T09:04:07;97431.16;;;14.15;65.69
71938;BME280;59810;48.800;9.086;2023-05-01T09:06:33;97424.13;;;14.09;67.13
71938;BME280;59810;48.800;9.086;2023-05-01T09:09:01;97426.22;;;14.27;68.36
71938;BME280;59810;48.800;9.086;2023-05-01T09:11:29;97438.41;;;14.45;64.79
71938;BME280;59810;48.800;9.086;2023-05-01T09:13:55;97440.81;;;14.41;63.94
71938;BME280;59810;48.800;9.086;2023-05-01T09:16:21;97432.16;;;14.29;64.99
71938;BME280;59810;48.800;9.086;2023-05-01T09:18:47;97438.53;;;14.04;65.44
71938;BME280;59810;48.800;9.086;2023-05-01T09:21:13;97431.41;;;14.18;67.74
71938;BME280;59810;48.800;9.086;2023-05-01T09:23:38;97431.66;;;14.32;65.17
71938;BME280;59810;48.800;9.086;2023-05-01T09:26:06;97436.78;;;14.33;64.59
71938;BME280;59810;48.800;9.086;2023-05-01T09:28:38;97440.00;;;14.46;64.97
71938;BME280;59810;48.800;9.086;2023-05-01T09:31:19;97439.19;;;14.45;64.77
71938;BME280;59810;48.800;9.086;2023-05-01T09:33:54;97434.78;;;14.59;63.35
71938;BME280;59810;48.800;9.086;2023-05-01T09:36:20;97431.53;;;14.57;63.63
71938;BME280;59810;48.800;9.086;2023-05-01T09:38:46;97435.66;;;14.50;64.52
71938;BME280;59810;48.800;9.086;2023-05-01T09:41:16;97432.16;;;14.39;63.86
71938;BME280;59810;48.800;9.086;2023-05-01T09:43:57;97439.94;;;14.56;65.50
71938;BME280;59810;48.800;9.086;2023-05-01T09:46:25;97430.44;;;14.63;64.92
71938;BME280;59810;48.800;9.086;2023-05-01T09:48:58;97426.25;;;14.76;65.13
71938;BME280;59810;48.800;9.086;2023-05-01T09:51:28;97431.41;;;14.78;65.04
71938;BME280;59810;48.800;9.086;2023-05-01T09:53:59;97422.66;;;14.86;64.48
71938;BME280;59810;48.800;9.086;2023-05-01T09:56:27;97424.63;;;14.75;65.71
71938;BME280;59810;48.800;9.086;2023-05-01T09:58:54;97430.44;;;14.63;64.88
71938;BME280;59810;48.800;9.086;2023-05-01T10:01:39;97428.53;;;14.59;66.21
71938;BME280;59810;48.800;9.086;2023-05-01T10:04:07;97421.72;;;14.67;65.22
71938;BME280;59810;48.800;9.086;2023-05-01T10:06:39;97431.38;;;14.83;63.50
71938;BME280;59810;48.800;9.086;2023-05-01T10:09:07;97434.81;;;14.93;63.07
71938;BME280;59810;48.800;9.086;2023-05-01T10:11:59;97430.16;;;15.04;63.33
71938;BME280;59810;48.800;9.086;2023-05-01T10:14:25;97436.28;;;15.20;61.78
71938;BME280;59810;48.800;9.086;2023-05-01T10:16:52;97434.03;;;15.27;63.84
71938;BME280;59810;48.800;9.086;2023-05-01T10:19:21;97436.97;;;15.36;62.95
71938;BME280;59810;48.800;9.086;2023-05-01T10:21:47;97435.97;;;15.55;60.14
71938;BME280;59810;48.800;9.086;2023-05-01T10:24:16;97436.25;;;15.54;61.36
71938;BME280;59810;48.800;9.086;2023-05-01T10:26:42;97435.63;;;15.67;58.54
71938;BME280;59810;48.800;9.086;2023-05-01T10:29:11;97444.16;;;15.50;59.74
71938;BME280;59810;48.800;9.086;2023-05-01T10:31:37;97437.41;;;15.48;60.94
71938;BME280;59810;48.800;9.086;2023-05-01T10:34:02;97435.41;;;15.59;59.62
71938;BME280;59810;48.800;9.086;2023-05-01T10:36:39;97441.03;;;15.38;59.78
71938;BME280;59810;48.800;9.086;2023-05-01T10:39:29;97439.16;;;15.34;60.29
71938;BME280;59810;48.800;9.086;2023-05-01T10:42:09;97437.34;;;15.53;60.28
71938;BME280;59810;48.800;9.086;2023-05-01T10:44:42;97430.94;;;15.73;59.72
71938;BME280;59810;48.800;9.086;2023-05-01T10:52:28;97428.84;;;15.88;60.49
71938;BME280;59810;48.800;9.086;2023-05-01T10:55:35;97435.94;;;16.13;58.58
71938;BME280;59810;48.800;9.086;2023-05-01T10:58:03;97441.56;;;15.40;60.68
71938;BME280;59810;48.800;9.086;2023-05-01T11:00:29;97433.72;;;15.68;61.48
71938;BME280;59810;48.800;9.086;2023-05-01T11:08:35;97435.66;;;15.57;60.99
71938;BME280;59810;48.800;9.086;2023-05-01T11:14:06;97429.13;;;15.63;62.71
71938;BME280;59810;48.800;9.086;2023-05-01T11:21:37;97417.97;;;15.88;60.30
71938;BME280;59810;48.800;9.086;2023-05-01T11:24:04;97422.44;;;15.79;60.18
71938;BME280;59810;48.800;9.086;2023-05-01T11:26:30;97422.31;;;15.61;60.97
71938;BME280;59810;48.800;9.086;2023-05-01T11:28:57;97414.84;;;15.76;60.48
71938;BME280;59810;48.800;9.086;2023-05-01T11:31:24;97426.88;;;15.70;61.26
71938;BME280;59810;48.800;9.086;2023-05-01T11:33:50;97421.84;;;15.82;61.44
71938;BME280;59810;48.800;9.086;2023-05-01T11:36:15;97420.16;;;15.86;59.72
71938;BME280;59810;48.800;9.086;2023-05-01T11:41:21;97428.63;;;15.85;59.68
71938;BME280;59810;48.800;9.086;2023-05-01T11:44:01;97422.38;;;15.84;59.89
71938;BME280;59810;48.800;9.086;2023-05-01T11:48:53;97421.31;;;15.80;59.57
71938;BME280;59810;48.800;9.086;2023-05-01T11:51:19;97422.13;;;15.81;59.35
71938;BME280;59810;48.800;9.086;2023-05-01T11:54:03;97421.50;;;15.60;61.74
71938;BME280;59810;48.800;9.086;2023-05-01T11:56:30;97415.00;;;15.85;59.26
71938;BME280;59810;48.800;9.086;2023-05-01T11:58:58;97416.75;;;16.00;59.21
71938;BME280;59810;48.800;9.086;2023-05-01T12:01:39;97412.66;;;16.26;58.69
71938;BME280;59810;48.800;9.086;2023-05-01T12:04:08;97401.69;;;16.50;58.96
71938;BME280;59810;48.800;9.086;2023-05-01T12:06:44;97404.50;;;16.64;56.77
71938;BME280;59810;48.800;9.086;2023-05-01T12:09:18;97401.78;;;17.01;56.36
71938;BME280;59810;48.800;9.086;2023-05-01T12:11:47;97403.03;;;17.55;54.28
71938;BME280;59810;48.800;9.086;2023-05-01T12:14:13;97397.66;;;17.83;52.89
71938;BME280;59810;48.800;9.086;2023-05-01T12:16:40;97396.66;;;17.79;54.74
71938;BME280;59810;48.800;9.086;2023-05-01T12:19:09;97394.72;;;17.79;53.27
71938;BME280;59810;48.800;9.086;2023-05-01T12:21:36;97397.28;;;17.89;52.19
71938;BME280;59810;48.800;9.086;2023-05-01T12:24:14;97398.13;;;17.57;53.44
71938;BME280;59810;48.800;9.086;2023-05-01T12:26:41;97396.25;;;17.39;54.37
71938;BME280;59810;48.800;9.086;2023-05-01T12:29:07;97400.19;;;17.33;54.50
71938;BME280;59810;48.800;9.086;2023-05-01T12:31:34;97404.94;;;17.41;52.96
71938;BME280;59810;48.800;9.086;2023-05-01T12:34:06;97411.94;;;17.15;54.42
71938;BME280;59810;48.800;9.086;2023-05-01T12:36:33;97406.22;;;16.97;55.50
71938;BME280;59810;48.800;9.086;2023-05-01T12:39:04;97400.91;;;16.68;56.58
71938;BME280;59810;48.800;9.086;2023-05-01T12:41:41;97417.81;;;16.46;57.31
71938;BME280;59810;48.800;9.086;2023-05-01T12:44:26;97415.81;;;16.33;59.30
71938;BME280;59810;48.800;9.086;2023-05-01T12:47:05;97408.81;;;16.27;59.04
71938;BME280;59810;48.800;9.086;2023-05-01T12:49:32;97407.75;;;16.23;60.03
71938;BME280;59810;48.800;9.086;2023-05-01T12:52:02;97410.75;;;16.22;58.81
71938;BME280;59810;48.800;9.086;2023-05-01T12:54:31;97411.53;;;16.03;59.45
71938;BME280;59810;48.800;9.086;2023-05-01T12:57:10;97406.63;;;16.05;59.33
71938;BME280;59810;48.800;9.086;2023-05-01T12:59:38;97404.00;;;16.19;59.42
71938;BME280;59810;48.800;9.086;2023-05-01T13:02:04;97402.66;;;15.93;61.92
71938;BME280;59810;48.800;9.086;2023-05-01T13:04:30;97409.50;;;15.90;60.77
71938;BME280;59810;48.800;9.086;2023-05-01T13:06:56;97403.25;;;15.90;60.76
71938;BME280;59810;48.800;9.086;2023-05-01T13:09:23;97399.31;;;15.77;61.65
71938;BME280;59810;48.800;9.086;2023-05-01T13:12:06;97397.53;;;15.67;62.98
71938;BME280;59810;48.800;9.086;2023-05-01T13:14:38;97398.25;;;15.44;63.21
71938;BME280;59810;48.800;9.086;2023-05-01T13:17:24;97400.88;;;15.54;63.74
71938;BME280;59810;48.800;9.086;2023-05-01T13:19:57;97393.00;;;15.81;62.05
71938;BME280;59810;48.800;9.086;2023-05-01T13:22:32;97398.00;;;15.98;62.49
71938;BME280;59810;48.800;9.086;2023-05-01T13:24:59;97406.09;;;16.03;62.87
71938;BME280;59810;48.800;9.086;2023-05-01T13:27:25;97398.56;;;15.95;63.12
71938;BME280;59810;48.800;9.086;2023-05-01T13:29:55;97402.50;;;15.84;62.59
71938;BME280;59810;48.800;9.086;2023-05-01T13:32:22;97402.44;;;15.89;58.15
71938;BME280;59810;48.800;9.086;2023-05-01T13:34:48;97403.19;;;15.71;59.23
71938;BME280;59810;48.800;9.086;2023-05-01T13:37:16;97409.00;;;15.59;61.79
71938;BME280;59810;48.800;9.086;2023-05-01T13:39:45;97413.44;;;15.50;61.78
71938;BME280;59810;48.800;9.086;2023-05-01T13:42:11;97415.25;;;15.31;62.67
71938;BME280;59810;48.800;9.086;2023-05-01T13:44:47;97405.09;;;15.07;65.49
71938;BME280;59810;48.800;9.086;2023-05-01T13:47:16;97409.59;;;15.22;62.84